Terminal Aerodrome Forecast
Issued by NWS

Home | Current Version | Previous Version | Text Only | Print | Product List | Glossary On
Versions: 1 2 3 4 5 6 7 8 9 10 11 12 13 14 15
000
FTUS45 KVEF 252341 AAA
TAFEED
TAF AMD
KEED 252341Z 2600/2624 23015G25KT P6SM VCTS SCT080CB BKN120
      TEMPO 2600/2604 -TSRA BKN080CB
     FM260400 28015G25KT P6SM BKN100
     FM261400 33015G25KT P6SM SCT250
     FM261600 01025G35KT P6SM SCT250=

USA.gov is the U.S. government's official web portal to all federal, state and local government web resources and services.